D/T METAR WX W/DIR W/SPE G/SPE TEMP DEWP
22/04/19 18:20 EGEC 221720Z 16010KT CAVOK 17/08 Q1001 SSE (160°) 11.5mph 17°C 8°C
22/04/19 17:50 EGEC 221650Z 15014KT CAVOK 17/07 Q1001 SSE (150°) 16.1mph 17°C 7°C
22/04/19 17:20 EGEC 221620Z 15015KT CAVOK 19/07 Q1002 SSE (150°) 17.3mph 19°C 7°C
22/04/19 16:50 EGEC 221550Z 16017KT CAVOK 20/08 Q1002 SSE (160°) 19.6mph 20°C 8°C
22/04/19 16:20 EGEC 221520Z 15015KT CAVOK 19/07 Q1002 SSE (150°) 17.3mph 19°C 7°C
22/04/19 15:50 EGEC 221450Z 16017KT CAVOK 19/07 Q1002 SSE (160°) 19.6mph 19°C 7°C
22/04/19 15:20 EGEC 221420Z 16017KT CAVOK 19/07 Q1002 SSE (160°) 19.6mph 19°C 7°C
22/04/19 14:50 EGEC 221350Z 16017KT CAVOK 19/07 Q1003 SSE (160°) 19.6mph 19°C 7°C
22/04/19 14:20 EGEC 221320Z 15016KT CAVOK 19/06 Q1003 SSE (150°) 18.4mph 19°C 6°C
22/04/19 13:50 EGEC 221250Z 15020KT 120V180 CAVOK 18/07 Q1003 SSE (150°) 23.0mph 18°C 7°C
22/04/19 13:20 EGEC 221220Z 15022KT CAVOK 19/07 Q1003 SSE (150°) 25.3mph 19°C 7°C
22/04/19 12:50 EGEC 221150Z 15017G27KT CAVOK 18/07 Q1003 SSE (150°) 19.6mph 31.1mph 18°C 7°C
22/04/19 12:20 EGEC 221120Z 15012KT CAVOK 17/09 Q1003 SSE (150°) 13.8mph 17°C 9°C
22/04/19 11:50 EGEC 221050Z 09016KT CAVOK 17/09 Q1003 E (90°) 18.4mph 17°C 9°C
22/04/19 11:20 EGEC 221020Z 08020KT CAVOK 16/09 Q1003 E (80°) 23.0mph 16°C 9°C
22/04/19 10:50 EGEC 220950Z 09014KT CAVOK 15/08 Q1004 E (90°) 16.1mph 15°C 8°C
22/04/19 10:20 EGEC 220920Z 10013KT CAVOK 15/08 Q1004 E (100°) 15.0mph 15°C 8°C
22/04/19 09:50 EGEC 220850Z 11010KT CAVOK 15/08 Q1004 ESE (110°) 11.5mph 15°C 8°C
22/04/19 09:20 EGEC 220820Z 13016KT CAVOK 15/07 Q1005 SE (130°) 18.4mph 15°C 7°C
22/04/19 08:50 EGEC 220750Z 10009KT CAVOK 14/08 Q1005 E (100°) 10.4mph 14°C 8°C
22/04/19 08:20 EGEC 220720Z 14013KT CAVOK 12/08 Q1005 SE (140°) 15.0mph 12°C 8°C
22/04/19 07:50 EGEC 220650Z 11010KT CAVOK 11/08 Q1005 ESE (110°) 11.5mph 11°C 8°C
19/04/19 17:20 EGEC 191620Z 13012KT CAVOK 15/07 Q1029 SE (130°) 13.8mph 15°C 7°C
19/04/19 16:20 EGEC 191520Z 13015KT CAVOK 16/07 Q1029 SE (130°) 17.3mph 16°C 7°C
19/04/19 15:50 EGEC 191450Z 13014KT CAVOK 16/08 Q1029 SE (130°) 16.1mph 16°C 8°C
19/04/19 15:20 EGEC 191420Z 13014KT CAVOK 17/08 Q1029 SE (130°) 16.1mph 17°C 8°C
19/04/19 14:50 EGEC 191350Z 15012KT CAVOK 17/08 Q1029 SSE (150°) 13.8mph 17°C 8°C
19/04/19 14:20 EGEC 191320Z 16014KT CAVOK 16/07 Q1029 SSE (160°) 16.1mph 16°C 7°C
19/04/19 13:50 EGEC 191250Z 14013KT 110V170 CAVOK 17/08 Q1029 SE (140°) 15.0mph 17°C 8°C
19/04/19 13:20 EGEC 191220Z 15014KT CAVOK 17/07 Q1029 SSE (150°) 16.1mph 17°C 7°C
19/04/19 12:50 EGEC 191150Z 14013G24KT CAVOK 18/08 Q1029 SE (140°) 15.0mph 27.6mph 18°C 8°C
19/04/19 12:20 EGEC 191120Z 11013KT CAVOK 16/07 Q1029 ESE (110°) 15.0mph 16°C 7°C
19/04/19 11:50 EGEC 191050Z 11014KT CAVOK 15/07 Q1029 ESE (110°) 16.1mph 15°C 7°C
19/04/19 11:20 EGEC 191020Z 11014KT CAVOK 15/06 Q1029 ESE (110°) 16.1mph 15°C 6°C
19/04/19 10:50 EGEC 190950Z 11015KT CAVOK 15/07 Q1029 ESE (110°) 17.3mph 15°C 7°C
19/04/19 10:20 EGEC 190920Z 11017KT CAVOK 15/07 Q1029 ESE (110°) 19.6mph 15°C 7°C
19/04/19 09:50 EGEC 190850Z 11017KT CAVOK 14/07 Q1029 ESE (110°) 19.6mph 14°C 7°C
19/04/19 09:20 EGEC 190820Z 11016KT CAVOK 13/07 Q1029 ESE (110°) 18.4mph 13°C 7°C
19/04/19 08:50 EGEC 190750Z 11013KT CAVOK 12/07 Q1029 ESE (110°) 15.0mph 12°C 7°C
19/04/19 08:20 EGEC 190720Z 10011KT CAVOK 12/07 Q1028 E (100°) 12.7mph 12°C 7°C
19/04/19 07:50 EGEC 190650Z 10011KT CAVOK 10/07 Q1028 E (100°) 12.7mph 10°C 7°C
18/04/19 17:20 EGEC 181620Z 17007KT CAVOK 16/09 Q1025 S (170°) 8.1mph 16°C 9°C
18/04/19 16:50 EGEC 181550Z 16009KT CAVOK 16/09 Q1025 SSE (160°) 10.4mph 16°C 9°C
18/04/19 16:20 EGEC 181520Z 15010KT 7000 NSC 16/08 Q1025 SSE (150°) 11.5mph 16°C 8°C
18/04/19 15:20 EGEC 181420Z 14013KT CAVOK 16/09 Q1025 SE (140°) 15.0mph 16°C 9°C
18/04/19 14:50 EGEC 181350Z 11014KT CAVOK 16/09 Q1025 ESE (110°) 16.1mph 16°C 9°C
18/04/19 13:50 EGEC 181250Z 11016KT CAVOK 15/09 Q1025 ESE (110°) 18.4mph 15°C 9°C
18/04/19 13:20 EGEC 181220Z 11015KT CAVOK 15/09 Q1025 ESE (110°) 17.3mph 15°C 9°C
18/04/19 12:50 EGEC 181150Z 11016KT CAVOK 15/09 Q1025 ESE (110°) 18.4mph 15°C 9°C
18/04/19 12:20 EGEC 181120Z 11014KT CAVOK 14/09 Q1025 ESE (110°) 16.1mph 14°C 9°C
18/04/19 11:50 EGEC 181050Z 11015KT CAVOK 13/08 Q1025 ESE (110°) 17.3mph 13°C 8°C
18/04/19 11:20 EGEC 181020Z 10013KT CAVOK 13/08 Q1025 E (100°) 15.0mph 13°C 8°C
18/04/19 10:50 EGEC 180950Z 11014KT CAVOK 12/08 Q1025 ESE (110°) 16.1mph 12°C 8°C
18/04/19 10:20 EGEC 180920Z 11015KT CAVOK 12/07 Q1025 ESE (110°) 17.3mph 12°C 7°C
18/04/19 09:50 EGEC 180850Z 10013KT CAVOK 12/08 Q1025 E (100°) 15.0mph 12°C 8°C
18/04/19 09:20 EGEC 180820Z 11014KT CAVOK 11/07 Q1025 ESE (110°) 16.1mph 11°C 7°C
18/04/19 08:50 EGEC 180750Z 10016KT CAVOK 11/07 Q1024 E (100°) 18.4mph 11°C 7°C
18/04/19 08:20 EGEC 180720Z 10015KT CAVOK 10/07 Q1024 E (100°) 17.3mph 10°C 7°C
18/04/19 07:50 EGEC 180650Z 10014KT CAVOK 10/07 Q1024 E (100°) 16.1mph 10°C 7°C
17/04/19 17:20 EGEC 171620Z 11011KT CAVOK 14/07 Q1020 ESE (110°) 12.7mph 14°C 7°C
17/04/19 16:50 EGEC 171550Z 09011KT CAVOK 14/06 Q1020 E (90°) 12.7mph 14°C 6°C
17/04/19 15:50 EGEC 171450Z 09009KT 9999 FEW033 14/07 Q1021 E (90°) 10.4mph 14°C 7°C
17/04/19 14:50 EGEC 171350Z 10009KT 060V140 CAVOK 14/07 Q1021 E (100°) 10.4mph 14°C 7°C
17/04/19 14:20 EGEC 171320Z 10010KT 9999 FEW031 13/07 Q1021 E (100°) 11.5mph 13°C 7°C
17/04/19 13:50 EGEC 171250Z 11012KT 9999 BKN031 13/06 Q1021 ESE (110°) 13.8mph 13°C 6°C
17/04/19 13:20 EGEC 171220Z 11012KT 070V130 9999 BKN028 13/06 Q1021 ESE (110°) 13.8mph 13°C 6°C
17/04/19 12:50 EGEC 171150Z 11012KT 9999 FEW014 BKN028 12/06 Q1021 ESE (110°) 13.8mph 12°C 6°C
17/04/19 12:20 EGEC 171120Z 12012KT 9999 BKN028 11/06 Q1021 ESE (120°) 13.8mph 11°C 6°C
17/04/19 11:50 EGEC 171050Z 10011KT 9999 FEW014 BKN026 BKN034 11/06 Q1021 E (100°) 12.7mph 11°C 6°C
17/04/19 11:20 EGEC 171020Z 11012KT 9999 BKN027 10/07 Q1021 ESE (110°) 13.8mph 10°C 7°C
17/04/19 10:50 EGEC 170950Z 11014KT 9999 BKN027 SCT035 09/06 Q1021 ESE (110°) 16.1mph 9°C 6°C
17/04/19 10:20 EGEC 170920Z 10011KT 9999 FEW015 BKN027 10/07 Q1021 E (100°) 12.7mph 10°C 7°C
17/04/19 09:50 EGEC 170850Z 09010KT 9999 FEW014 BKN026 09/06 Q1021 E (90°) 11.5mph 9°C 6°C
17/04/19 09:20 EGEC 170820Z 09010KT 9999 FEW013 BKN024 08/06 Q1021 E (90°) 11.5mph 8°C 6°C
17/04/19 08:20 EGEC 170720Z 10010KT 9999 FEW014 BKN024 08/06 Q1020 E (100°) 11.5mph 8°C 6°C
16/04/19 21:20 EGEC 162020Z 11008KT 4600 -DZ BKN012 09/09 Q1018 -DZ ESE (110°) 9.2mph 9°C 9°C
16/04/19 20:20 EGEC 161920Z 11005KT 3300 -DZ BKN009 09/08 Q1018 -DZ ESE (110°) 5.8mph 9°C 8°C
16/04/19 19:50 EGEC 161850Z 11007KT 6000 -DZ BKN010 09/08 Q1017 -DZ ESE (110°) 8.1mph 9°C 8°C
16/04/19 17:20 EGEC 161620Z 10010KT 4600 -DZ SCT035 10/09 Q1017 -DZ E (100°) 11.5mph 10°C 9°C
16/04/19 16:50 EGEC 161550Z 11011KT 7000 -DZ SCT042 10/08 Q1017 -DZ ESE (110°) 12.7mph 10°C 8°C
16/04/19 16:20 EGEC 161520Z 10011KT 9000 -RADZ NSC 10/07 Q1017 -RA -DZ E (100°) 12.7mph 10°C 7°C
16/04/19 15:50 EGEC 161450Z 10010KT 7000 -RADZ NSC 10/07 Q1017 -RA -DZ E (100°) 11.5mph 10°C 7°C
16/04/19 15:20 EGEC 161420Z 10012KT 5000 -RADZ NSC 10/08 Q1017 -RA -DZ E (100°) 13.8mph 10°C 8°C
16/04/19 14:50 EGEC 161350Z 10012KT 5000 -DZ NSC 10/07 Q1017 -DZ E (100°) 13.8mph 10°C 7°C
16/04/19 14:20 EGEC 161320Z 12010KT 6000 -DZ NSC 10/07 Q1017 -DZ ESE (120°) 11.5mph 10°C 7°C
16/04/19 13:20 EGEC 161220Z 11010KT 8000 -RA BKN049 10/05 Q1017 -RA ESE (110°) 11.5mph 10°C 5°C
16/04/19 12:50 EGEC 161150Z 10010KT 7000 NSC 10/04 Q1017 E (100°) 11.5mph 10°C 4°C
16/04/19 12:20 EGEC 161120Z 11011KT CAVOK 10/05 Q1017 ESE (110°) 12.7mph 10°C 5°C
16/04/19 11:50 EGEC 161050Z 11011KT CAVOK 10/05 Q1017 ESE (110°) 12.7mph 10°C 5°C
16/04/19 11:20 EGEC 161020Z 11011KT CAVOK 10/05 Q1017 ESE (110°) 12.7mph 10°C 5°C
16/04/19 10:50 EGEC 160950Z 10012KT CAVOK 09/05 Q1017 E (100°) 13.8mph 9°C 5°C
16/04/19 10:20 EGEC 160920Z 10012KT CAVOK 09/05 Q1017 E (100°) 13.8mph 9°C 5°C
16/04/19 09:50 EGEC 160850Z 10010KT 9999 FEW048 09/05 Q1016 E (100°) 11.5mph 9°C 5°C
16/04/19 09:20 EGEC 160820Z 09010KT 9999 FEW028 09/05 Q1016 E (90°) 11.5mph 9°C 5°C
16/04/19 08:50 EGEC 160750Z 10010KT 9999 FEW030 08/05 Q1016 E (100°) 11.5mph 8°C 5°C
16/04/19 08:20 EGEC 160720Z 11012KT 9999 SCT028 08/05 Q1016 ESE (110°) 13.8mph 8°C 5°C
16/04/19 07:50 EGEC 160650Z 10010KT 9999 BKN028 08/05 Q1016 E (100°) 11.5mph 8°C 5°C
15/04/19 17:20 EGEC 151620Z 11023KT CAVOK 10/03 Q1013 ESE (110°) 26.5mph 10°C 3°C
15/04/19 16:50 EGEC 151550Z 11025KT 9999 FEW048 10/03 Q1013 ESE (110°) 28.8mph 10°C 3°C
15/04/19 16:20 EGEC 151520Z 11027KT 9999 FEW048 10/03 Q1013 ESE (110°) 31.1mph 10°C 3°C
15/04/19 15:50 EGEC 151450Z 11027KT 9999 SCT048 10/03 Q1013 ESE (110°) 31.1mph 10°C 3°C
15/04/19 15:20 EGEC 151420Z 11027KT 9999 -SHRA BKN048 09/04 Q1013 -SHRA ESE (110°) 31.1mph 9°C 4°C
15/04/19 14:50 EGEC 151350Z 11029KT 9999 SCT048 10/02 Q1014 ESE (110°) 33.4mph 10°C 2°C
15/04/19 14:20 EGEC 151320Z 11028KT 9999 -SHRA FEW032 09/03 Q1014 -SHRA ESE (110°) 32.2mph 9°C 3°C
15/04/19 13:50 EGEC 151250Z 11031KT 9999 -RA NSC 10/02 Q1014 -RA ESE (110°) 35.7mph 10°C 2°C
15/04/19 13:20 EGEC 151220Z 12031G41KT CAVOK 10/02 Q1015 ESE (120°) 35.7mph 47.2mph 10°C 2°C
15/04/19 12:50 EGEC 151150Z 12035G47KT CAVOK 10/00 Q1015 ESE (120°) 40.3mph 54.1mph 10°C 0°C
15/04/19 12:20 EGEC 151120Z 11032KT 090V150 CAVOK 09/02 Q1016 ESE (110°) 36.8mph 9°C 2°C
15/04/19 11:50 EGEC 151050Z 11032KT CAVOK 09/02 Q1016 ESE (110°) 36.8mph 9°C 2°C
15/04/19 11:20 EGEC 151020Z 11032KT CAVOK 08/02 Q1016 ESE (110°) 36.8mph 8°C 2°C
15/04/19 10:50 EGEC 150950Z 12031KT 9999 FEW032 08/02 Q1017 ESE (120°) 35.7mph 8°C 2°C
15/04/19 10:20 EGEC 150920Z 11030KT 9999 SCT032 08/02 Q1017 ESE (110°) 34.5mph 8°C 2°C
15/04/19 09:50 EGEC 150850Z 11029KT 9999 BKN031 BKN039 08/02 Q1018 ESE (110°) 33.4mph 8°C 2°C
15/04/19 09:20 EGEC 150820Z 11024KT 9999 SCT030 BKN037 07/02 Q1018 ESE (110°) 27.6mph 7°C 2°C
15/04/19 08:50 EGEC 150750Z 11024G34KT 9999 BKN030 06/02 Q1018 ESE (110°) 27.6mph 39.1mph 6°C 2°C
15/04/19 08:20 EGEC 150720Z 11027KT 9999 BKN027 06/02 Q1018 ESE (110°) 31.1mph 6°C 2°C
15/04/19 07:50 EGEC 150650Z 11025KT 9999 BKN027 BKN035 06/02 Q1019 ESE (110°) 28.8mph 6°C 2°C
12/04/19 17:20 EGEC 121620Z 15018KT 9999 FEW020 09/01 Q1025 SSE (150°) 20.7mph 9°C 1°C
12/04/19 16:50 EGEC 121550Z 14022KT 9999 FEW020 09/02 Q1025 SE (140°) 25.3mph 9°C 2°C
12/04/19 16:20 EGEC 121520Z 15022KT 9999 FEW020 10/03 Q1025 SSE (150°) 25.3mph 10°C 3°C
12/04/19 15:50 EGEC 121450Z 15024KT CAVOK 10/02 Q1025 SSE (150°) 27.6mph 10°C 2°C
12/04/19 15:20 EGEC 121420Z 15022KT CAVOK 10/01 Q1025 SSE (150°) 25.3mph 10°C 1°C
12/04/19 14:50 EGEC 121350Z 15024KT CAVOK 10/01 Q1025 SSE (150°) 27.6mph 10°C 1°C
12/04/19 14:20 EGEC 121320Z 14022KT CAVOK 11/01 Q1025 SE (140°) 25.3mph 11°C 1°C
12/04/19 13:50 EGEC 121250Z 15022KT 9999 FEW020 11/02 Q1025 SSE (150°) 25.3mph 11°C 2°C
12/04/19 13:20 EGEC 121220Z 14019KT 9999 SCT048 11/03 Q1026 SE (140°) 21.9mph 11°C 3°C
12/04/19 12:50 EGEC 121150Z 14018KT 9999 BKN048 11/04 Q1026 SE (140°) 20.7mph 11°C 4°C
12/04/19 12:20 EGEC 121120Z 14019KT 9999 FEW025 10/04 Q1026 SE (140°) 21.9mph 10°C 4°C
12/04/19 11:50 EGEC 121050Z 15019KT 9999 FEW020 SCT048 10/03 Q1026 SSE (150°) 21.9mph 10°C 3°C
12/04/19 11:20 EGEC 121020Z 15018KT 9999 FEW020 BKN048 09/03 Q1026 SSE (150°) 20.7mph 9°C 3°C
12/04/19 10:50 EGEC 120950Z 15019KT 9999 FEW020 BKN048 08/05 Q1026 SSE (150°) 21.9mph 8°C 5°C
12/04/19 10:20 EGEC 120920Z 15019KT 9999 BKN048 07/04 Q1026 SSE (150°) 21.9mph 7°C 4°C
12/04/19 09:50 EGEC 120850Z 15023KT 9999 FEW020 07/04 Q1025 SSE (150°) 26.5mph 7°C 4°C
12/04/19 09:20 EGEC 120820Z 15022KT 9999 FEW020 07/04 Q1025 SSE (150°) 25.3mph 7°C 4°C
12/04/19 08:50 EGEC 120750Z 15021KT 9999 FEW020 08/05 Q1025 SSE (150°) 24.2mph 8°C 5°C
12/04/19 08:20 EGEC 120720Z 14019KT 9999 FEW020 07/05 Q1025 SE (140°) 21.9mph 7°C 5°C
12/04/19 07:50 EGEC 120650Z 13012KT 9999 FEW025 07/05 Q1025 SE (130°) 13.8mph 7°C 5°C
11/04/19 17:20 EGEC 111620Z 15016KT 9999 FEW018 SCT036 10/06 Q1024 SSE (150°) 18.4mph 10°C 6°C
11/04/19 16:50 EGEC 111550Z 15016KT 9999 FEW017 09/05 Q1024 SSE (150°) 18.4mph 9°C 5°C
11/04/19 16:20 EGEC 111520Z 15017KT 9999 FEW017 10/05 Q1025 SSE (150°) 19.6mph 10°C 5°C
11/04/19 15:50 EGEC 111450Z 15018KT 9999 FEW017 10/05 Q1025 SSE (150°) 20.7mph 10°C 5°C
11/04/19 15:20 EGEC 111420Z 15016KT 9999 FEW017 10/06 Q1025 SSE (150°) 18.4mph 10°C 6°C
11/04/19 14:50 EGEC 111350Z 15016KT 9999 FEW017 SCT039 11/06 Q1025 SSE (150°) 18.4mph 11°C 6°C
11/04/19 14:20 EGEC 111320Z 16016KT 9999 FEW018 10/05 Q1025 SSE (160°) 18.4mph 10°C 5°C